Terminal Aerodrome Forecast
Issued by NWS Lake Charles, LA

Home | Current Version | Previous Version | Text Only | Print | Product List | Glossary On
Versions: 1 2 3 4 5 6 7 8 9 10 11 12 13 14 15 16 17 18 19
000
FTUS44 KLCH 012320
TAFLFT
TAF
KLFT 012320Z 0200/0224 24005KT P6SM VCTS SCT025CB SCT035 BKN250
      TEMPO 0200/0202 VRB15G30KT 2SM TSRA BKN025CB
     FM020200 VRB03KT P6SM BKN250
     FM021400 22005KT P6SM SCT025
     FM021800 22009KT P6SM SCT040=

USA.gov is the U.S. government's official web portal to all federal, state and local government web resources and services.